createdAt,value
2018-02-20T00:00:45.182Z,1011.85
2018-02-20T00:01:45.181Z,1011.82
2018-02-20T00:02:45.082Z,1011.88
2018-02-20T00:03:45.337Z,1011.79
2018-02-20T00:04:44.985Z,1011.75
2018-02-20T00:05:44.952Z,1011.75
2018-02-20T00:06:44.886Z,1011.75
2018-02-20T00:07:44.838Z,1011.73
2018-02-20T00:08:44.788Z,1011.78
2018-02-20T00:09:45.045Z,1011.74
2018-02-20T00:10:44.690Z,1011.77
2018-02-20T00:11:44.644Z,1011.79
2018-02-20T00:12:44.593Z,1011.76
2018-02-20T00:13:44.545Z,1011.79
2018-02-20T00:14:44.497Z,1011.77
2018-02-20T00:15:44.746Z,1011.76
2018-02-20T00:16:44.398Z,1011.77
2018-02-20T00:17:44.399Z,1011.74
2018-02-20T00:18:44.301Z,1011.74
2018-02-20T00:19:44.251Z,1011.70
2018-02-20T00:20:44.204Z,1011.73
2018-02-20T00:21:44.452Z,1011.72
2018-02-20T00:22:44.101Z,1011.68
2018-02-20T00:23:44.103Z,1011.72
2018-02-20T00:24:44.013Z,1011.67
2018-02-20T00:25:43.961Z,1011.67
2018-02-20T00:26:43.905Z,1011.72
2018-02-20T00:27:44.157Z,1011.69
2018-02-20T00:28:43.808Z,1011.69
2018-02-20T00:29:43.809Z,1011.69
2018-02-20T00:30:43.708Z,1011.67
2018-02-20T00:31:43.660Z,1011.66
2018-02-20T00:32:43.612Z,1011.67
2018-02-20T00:33:43.862Z,1011.63
2018-02-20T00:34:43.520Z,1011.60
2018-02-20T00:35:43.462Z,1011.63
2018-02-20T00:36:43.418Z,1011.58
2018-02-20T00:37:43.365Z,1011.55
2018-02-20T00:38:43.315Z,1011.60
2018-02-20T00:39:43.276Z,1011.59
2018-02-20T00:40:43.521Z,1011.52
2018-02-20T00:41:43.171Z,1011.48
2018-02-20T00:42:43.120Z,1011.50
2018-02-20T00:43:43.075Z,1011.58
2018-02-20T00:44:43.020Z,1011.54
2018-02-20T00:45:42.972Z,1011.52
2018-02-20T00:46:42.923Z,1011.53
2018-02-20T00:47:43.173Z,1011.53
2018-02-20T00:48:42.823Z,1011.50
2018-02-20T00:49:42.776Z,1011.48
2018-02-20T00:50:42.724Z,1011.47
2018-02-20T00:51:42.674Z,1011.55
2018-02-20T00:52:42.626Z,1011.55
2018-02-20T00:54:42.824Z,1011.57
2018-02-20T00:55:42.476Z,1011.53
2018-02-20T00:56:42.431Z,1011.55
2018-02-20T00:57:42.381Z,1011.55
2018-02-20T00:58:42.329Z,1011.54
2018-02-20T00:59:42.278Z,1011.61
2018-02-20T01:00:42.230Z,1011.59
2018-02-20T01:01:42.478Z,1011.58
2018-02-20T01:02:42.131Z,1011.63
2018-02-20T01:03:42.082Z,1011.59
2018-02-20T01:04:42.031Z,1011.56
2018-02-20T01:05:41.982Z,1011.61
2018-02-20T01:06:41.933Z,1011.60
2018-02-20T01:07:41.883Z,1011.62
2018-02-20T01:08:42.134Z,1011.58
2018-02-20T01:09:41.785Z,1011.60
2018-02-20T01:10:41.734Z,1011.61
2018-02-20T01:11:41.686Z,1011.64
2018-02-20T01:12:41.638Z,1011.64
2018-02-20T01:13:41.590Z,1011.64
2018-02-20T01:14:41.537Z,1011.62
2018-02-20T01:15:41.786Z,1011.62
2018-02-20T01:16:41.438Z,1011.63
2018-02-20T01:17:41.388Z,1011.64
2018-02-20T01:18:41.339Z,1011.62
2018-02-20T01:19:41.288Z,1011.62
2018-02-20T01:20:41.239Z,1011.62
2018-02-20T01:21:41.489Z,1011.56
2018-02-20T01:22:41.140Z,1011.59
2018-02-20T01:23:41.090Z,1011.59
2018-02-20T01:24:41.040Z,1011.61
2018-02-20T01:25:40.992Z,1011.57
2018-02-20T01:26:40.944Z,1011.56
2018-02-20T01:27:41.192Z,1011.53
2018-02-20T01:28:40.841Z,1011.53
2018-02-20T01:29:40.795Z,1011.50
2018-02-20T01:30:40.749Z,1011.47
2018-02-20T01:31:40.694Z,1011.47
2018-02-20T01:32:40.645Z,1011.47
2018-02-20T01:33:40.897Z,1011.55
2018-02-20T01:34:40.546Z,1011.56
2018-02-20T01:35:40.543Z,1011.52
2018-02-20T01:36:40.456Z,1011.50
2018-02-20T01:37:40.407Z,1011.55
2018-02-20T01:38:40.344Z,1011.56
2018-02-20T01:39:40.598Z,1011.60
2018-02-20T01:40:40.255Z,1011.60
2018-02-20T01:41:40.403Z,1011.61
2018-02-20T01:42:40.151Z,1011.61
2018-02-20T01:43:40.103Z,1011.63
2018-02-20T01:44:40.050Z,1011.59
2018-02-20T01:45:40.301Z,1011.60
2018-02-20T01:46:39.950Z,1011.64
2018-02-20T01:47:39.900Z,1011.63
2018-02-20T01:48:40.180Z,1011.60
2018-02-20T01:49:39.802Z,1011.59
2018-02-20T01:50:39.751Z,1011.59
2018-02-20T01:51:39.700Z,1011.54
2018-02-20T01:52:39.950Z,1011.55
2018-02-20T01:53:39.603Z,1011.59
2018-02-20T01:54:39.551Z,1011.58
2018-02-20T01:55:39.501Z,1011.63
2018-02-20T01:56:39.453Z,1011.61
2018-02-20T01:57:39.411Z,1011.66
2018-02-20T01:58:39.354Z,1011.64
2018-02-20T01:59:39.603Z,1011.69
2018-02-20T02:00:39.258Z,1011.68
2018-02-20T02:01:39.203Z,1011.67
2018-02-20T02:02:39.157Z,1011.66
2018-02-20T02:03:39.103Z,1011.65
2018-02-20T02:04:39.052Z,1011.62
2018-02-20T02:05:39.005Z,1011.65
2018-02-20T02:06:39.254Z,1011.66
2018-02-20T02:07:38.905Z,1011.67
2018-02-20T02:08:38.955Z,1011.71
2018-02-20T02:09:38.807Z,1011.71
2018-02-20T02:10:38.755Z,1011.71
2018-02-20T02:11:38.705Z,1011.71
2018-02-20T02:12:38.656Z,1011.71
2018-02-20T02:13:38.905Z,1011.66
2018-02-20T02:14:38.555Z,1011.68
2018-02-20T02:15:38.504Z,1011.67
2018-02-20T02:16:38.459Z,1011.66
2018-02-20T02:17:38.407Z,1011.64
2018-02-20T02:18:38.356Z,1011.64
2018-02-20T02:19:38.307Z,1011.65
2018-02-20T02:20:38.560Z,1011.69
2018-02-20T02:21:38.207Z,1011.71
2018-02-20T02:22:38.155Z,1011.73
2018-02-20T02:23:38.104Z,1011.67
2018-02-20T02:24:38.056Z,1011.62
2018-02-20T02:25:38.008Z,1011.67
2018-02-20T02:26:38.258Z,1011.66
2018-02-20T02:27:37.905Z,1011.65
2018-02-20T02:28:37.858Z,1011.60
2018-02-20T02:29:37.809Z,1011.65
2018-02-20T02:30:37.758Z,1011.62
2018-02-20T02:31:37.706Z,1011.63
2018-02-20T02:32:37.960Z,1011.67
2018-02-20T02:33:37.608Z,1011.69
2018-02-20T02:34:37.565Z,1011.64
2018-02-20T02:35:37.513Z,1011.70
2018-02-20T02:36:37.460Z,1011.66
2018-02-20T02:37:37.410Z,1011.65
2018-02-20T02:38:37.656Z,1011.66
2018-02-20T02:39:37.314Z,1011.58
2018-02-20T02:40:37.258Z,1011.63
2018-02-20T02:41:37.208Z,1011.63
2018-02-20T02:42:37.184Z,1011.61
2018-02-20T02:43:37.109Z,1011.64
2018-02-20T02:44:37.397Z,1011.64
2018-02-20T02:45:37.060Z,1011.60
2018-02-20T02:46:36.968Z,1011.59
2018-02-20T02:47:36.908Z,1011.63
2018-02-20T02:48:36.865Z,1011.60
2018-02-20T02:49:36.814Z,1011.60
2018-02-20T02:50:37.069Z,1011.66
2018-02-20T02:51:36.758Z,1011.60
2018-02-20T02:52:36.658Z,1011.66
2018-02-20T02:53:36.611Z,1011.60
2018-02-20T02:54:36.557Z,1011.62
2018-02-20T02:55:36.511Z,1011.60
2018-02-20T02:56:36.460Z,1011.60
2018-02-20T02:57:36.735Z,1011.58
2018-02-20T02:58:36.361Z,1011.65
2018-02-20T02:59:36.310Z,1011.64
2018-02-20T03:00:36.274Z,1011.65
2018-02-20T03:01:36.213Z,1011.65
2018-02-20T03:02:36.161Z,1011.65
2018-02-20T03:03:36.109Z,1011.62
2018-02-20T03:04:36.361Z,1011.65
2018-02-20T03:05:36.013Z,1011.63
2018-02-20T03:06:35.958Z,1011.69
2018-02-20T03:07:35.907Z,1011.69
2018-02-20T03:08:35.908Z,1011.61
2018-02-20T03:09:35.814Z,1011.64
2018-02-20T03:10:35.757Z,1011.65
2018-02-20T03:12:35.957Z,1011.62
2018-02-20T03:13:35.612Z,1011.67
2018-02-20T03:14:35.610Z,1011.68
2018-02-20T03:15:35.511Z,1011.65
2018-02-20T03:16:35.457Z,1011.66
2018-02-20T03:17:35.408Z,1011.67
2018-02-20T03:18:35.356Z,1011.64
2018-02-20T03:19:35.612Z,1011.69
2018-02-20T03:20:35.261Z,1011.72
2018-02-20T03:21:35.209Z,1011.73
2018-02-20T03:22:35.155Z,1011.71
2018-02-20T03:23:35.109Z,1011.72
2018-02-20T03:24:35.059Z,1011.76
2018-02-20T03:25:35.207Z,1011.70
2018-02-20T03:26:35.257Z,1011.71
2018-02-20T03:27:34.910Z,1011.73
2018-02-20T03:28:34.858Z,1011.75
2018-02-20T03:29:34.806Z,1011.71
2018-02-20T03:30:34.759Z,1011.69
2018-02-20T03:31:34.713Z,1011.76
2018-02-20T03:32:34.657Z,1011.75
2018-02-20T03:33:34.907Z,1011.70
2018-02-20T03:34:34.556Z,1011.74
2018-02-20T03:35:34.505Z,1011.74
2018-02-20T03:36:34.456Z,1011.77
2018-02-20T03:37:34.457Z,1011.78
2018-02-20T03:38:34.353Z,1011.76
2018-02-20T03:39:34.606Z,1011.75
2018-02-20T03:40:34.256Z,1011.72
2018-02-20T03:41:34.204Z,1011.72
2018-02-20T03:42:34.156Z,1011.72
2018-02-20T03:43:34.105Z,1011.70
2018-02-20T03:44:34.055Z,1011.70
2018-02-20T03:45:34.508Z,1011.70
2018-02-20T03:46:33.957Z,1011.69
2018-02-20T03:47:33.910Z,1011.66
2018-02-20T03:48:33.854Z,1011.71
2018-02-20T03:49:33.810Z,1011.62
2018-02-20T03:50:33.752Z,1011.68
2018-02-20T03:51:34.004Z,1011.70
2018-02-20T03:52:33.652Z,1011.69
2018-02-20T03:53:33.604Z,1011.68
2018-02-20T03:54:33.552Z,1011.65
2018-02-20T03:55:33.501Z,1011.69
2018-02-20T03:56:33.452Z,1011.69
2018-02-20T03:57:33.704Z,1011.69
2018-02-20T03:58:33.350Z,1011.73
2018-02-20T03:59:33.304Z,1011.76
2018-02-20T04:00:33.250Z,1011.70
2018-02-20T04:01:33.200Z,1011.72
2018-02-20T04:02:33.159Z,1011.72
2018-02-20T04:03:33.400Z,1011.74
2018-02-20T04:04:33.050Z,1011.72
2018-02-20T04:05:33.003Z,1011.73
2018-02-20T04:06:32.955Z,1011.69
2018-02-20T04:07:32.899Z,1011.70
2018-02-20T04:08:32.871Z,1011.70
2018-02-20T04:09:32.826Z,1011.65
2018-02-20T04:10:33.046Z,1011.66
2018-02-20T04:11:32.698Z,1011.65
2018-02-20T04:12:32.647Z,1011.65
2018-02-20T04:13:32.603Z,1011.64
2018-02-20T04:14:32.546Z,1011.65
2018-02-20T04:15:32.497Z,1011.67
2018-02-20T04:16:32.448Z,1011.61
2018-02-20T04:17:32.698Z,1011.64
2018-02-20T04:18:32.346Z,1011.62
2018-02-20T04:19:32.295Z,1011.66
2018-02-20T04:20:32.246Z,1011.65
2018-02-20T04:21:32.194Z,1011.72
2018-02-20T04:22:32.143Z,1011.69
2018-02-20T04:23:32.196Z,1011.71
2018-02-20T04:24:32.349Z,1011.67
2018-02-20T04:25:31.994Z,1011.74
2018-02-20T04:26:31.940Z,1011.76
2018-02-20T04:27:31.890Z,1011.78
2018-02-20T04:28:31.842Z,1011.80
2018-02-20T04:29:31.891Z,1011.83
2018-02-20T04:30:31.748Z,1011.86
2018-02-20T04:31:31.994Z,1011.85
2018-02-20T04:32:31.639Z,1011.86
2018-02-20T04:33:31.594Z,1011.86
2018-02-20T04:34:31.539Z,1011.89
2018-02-20T04:35:31.593Z,1011.85
2018-02-20T04:36:31.441Z,1011.90
2018-02-20T04:37:31.388Z,1011.88
2018-02-20T04:38:31.639Z,1011.85
2018-02-20T04:39:31.287Z,1011.88
2018-02-20T04:40:31.239Z,1011.85
2018-02-20T04:41:31.190Z,1011.87
2018-02-20T04:42:31.134Z,1011.91
2018-02-20T04:43:31.084Z,1011.87
2018-02-20T04:44:31.335Z,1011.92
2018-02-20T04:45:30.984Z,1011.87
2018-02-20T04:46:30.934Z,1011.97
2018-02-20T04:47:30.882Z,1011.96
2018-02-20T04:48:30.832Z,1011.94
2018-02-20T04:49:30.783Z,1011.90
2018-02-20T04:50:31.030Z,1011.96
2018-02-20T04:51:30.880Z,1011.90
2018-02-20T04:52:30.629Z,1011.92
2018-02-20T04:53:30.582Z,1011.89
2018-02-20T04:54:30.530Z,1011.91
2018-02-20T04:55:30.481Z,1011.94
2018-02-20T04:56:30.728Z,1011.92
2018-02-20T04:57:30.430Z,1011.92
2018-02-20T04:58:30.332Z,1011.95
2018-02-20T04:59:30.275Z,1011.98
2018-02-20T05:00:30.228Z,1011.98
2018-02-20T05:01:30.176Z,1011.95
2018-02-20T05:02:30.427Z,1011.93
2018-02-20T05:03:30.075Z,1011.93
2018-02-20T05:04:30.038Z,1011.91
2018-02-20T05:05:29.979Z,1011.93
2018-02-20T05:06:29.928Z,1011.90
2018-02-20T05:07:29.872Z,1011.88
2018-02-20T05:08:30.126Z,1011.87
2018-02-20T05:09:29.771Z,1011.85
2018-02-20T05:10:29.720Z,1011.86
2018-02-20T05:11:29.671Z,1011.86
2018-02-20T05:12:29.624Z,1011.88
2018-02-20T05:13:29.619Z,1011.83
2018-02-20T05:14:29.518Z,1011.82
2018-02-20T05:15:29.771Z,1011.86
2018-02-20T05:16:29.416Z,1011.93
2018-02-20T05:17:29.371Z,1011.92
2018-02-20T05:18:29.317Z,1011.92
2018-02-20T05:19:29.321Z,1012.03
2018-02-20T05:20:29.290Z,1012.00
2018-02-20T05:21:29.165Z,1012.06
2018-02-20T05:22:29.412Z,1012.06
2018-02-20T05:23:29.063Z,1012.04
2018-02-20T05:24:29.011Z,1012.01
2018-02-20T05:25:29.011Z,1012.01
2018-02-20T05:26:28.910Z,1011.96
2018-02-20T05:27:28.860Z,1011.97
2018-02-20T05:28:28.810Z,1011.99
2018-02-20T05:29:29.058Z,1011.96
2018-02-20T05:30:28.709Z,1011.96
2018-02-20T05:31:28.657Z,1012.02
2018-02-20T05:32:28.607Z,1012.03
2018-02-20T05:33:28.560Z,1011.97
2018-02-20T05:34:28.506Z,1011.96
2018-02-20T05:35:28.455Z,1012.02
2018-02-20T05:36:28.705Z,1012.06
2018-02-20T05:37:28.354Z,1011.97
2018-02-20T05:38:28.303Z,1011.99
2018-02-20T05:39:28.252Z,1012.00
2018-02-20T05:40:28.201Z,1011.98
2018-02-20T05:41:28.150Z,1012.04
2018-02-20T05:42:28.106Z,1011.99
2018-02-20T05:43:28.351Z,1012.02
2018-02-20T05:44:27.997Z,1012.03
2018-02-20T05:45:27.948Z,1012.04
2018-02-20T05:46:27.905Z,1012.08
2018-02-20T05:47:27.847Z,1012.09
2018-02-20T05:48:27.794Z,1012.06
2018-02-20T05:49:27.748Z,1012.07
2018-02-20T05:50:27.995Z,1012.07
2018-02-20T05:51:27.680Z,1012.08
2018-02-20T05:52:27.600Z,1012.02
2018-02-20T05:53:27.543Z,1012.10
2018-02-20T05:54:27.490Z,1012.04
2018-02-20T05:55:27.439Z,1012.06
2018-02-20T05:56:27.840Z,1012.12
2018-02-20T05:57:27.340Z,1012.09
2018-02-20T05:58:27.289Z,1012.06
2018-02-20T05:59:27.240Z,1012.11
2018-02-20T06:00:27.185Z,1012.09
2018-02-20T06:01:27.135Z,1012.11
2018-02-20T06:02:27.386Z,1012.13
2018-02-20T06:03:27.038Z,1012.09
2018-02-20T06:04:26.982Z,1012.09
2018-02-20T06:05:26.934Z,1012.08
2018-02-20T06:06:26.882Z,1012.11
2018-02-20T06:07:26.831Z,1012.11
2018-02-20T06:08:27.181Z,1012.09
2018-02-20T06:09:26.783Z,1012.11
2018-02-20T06:10:26.683Z,1012.09
2018-02-20T06:11:26.635Z,1012.11
2018-02-20T06:12:26.577Z,1012.11
2018-02-20T06:13:26.529Z,1012.09
2018-02-20T06:14:26.784Z,1012.09
2018-02-20T06:15:26.433Z,1012.11
2018-02-20T06:16:26.374Z,1012.13
2018-02-20T06:17:26.331Z,1012.14
2018-02-20T06:18:26.277Z,1012.11
2018-02-20T06:19:26.272Z,1012.14
2018-02-20T06:20:26.477Z,1012.16
2018-02-20T06:21:26.120Z,1012.17
2018-02-20T06:22:26.069Z,1012.11
2018-02-20T06:23:26.020Z,1012.15
2018-02-20T06:24:25.967Z,1012.11
2018-02-20T06:25:25.973Z,1012.11
2018-02-20T06:26:25.867Z,1012.12
2018-02-20T06:27:26.121Z,1012.14
2018-02-20T06:28:25.769Z,1012.14
2018-02-20T06:29:25.716Z,1012.13
2018-02-20T06:30:25.663Z,1012.17
2018-02-20T06:31:25.612Z,1012.19
2018-02-20T06:32:25.563Z,1012.17
2018-02-20T06:33:25.514Z,1012.19
2018-02-20T06:34:25.762Z,1012.22
2018-02-20T06:35:25.410Z,1012.20
2018-02-20T06:36:25.363Z,1012.26
2018-02-20T06:37:25.313Z,1012.21
2018-02-20T06:38:25.257Z,1012.24
2018-02-20T06:39:25.209Z,1012.24
2018-02-20T06:40:25.160Z,1012.33
2018-02-20T06:41:25.509Z,1012.38
2018-02-20T06:42:25.054Z,1012.40
2018-02-20T06:43:25.005Z,1012.41
2018-02-20T06:44:24.956Z,1012.40
2018-02-20T06:45:24.908Z,1012.34
2018-02-20T06:46:24.853Z,1012.37
2018-02-20T06:47:24.856Z,1012.37
2018-02-20T06:48:25.057Z,1012.39
2018-02-20T06:49:24.701Z,1012.39
2018-02-20T06:50:24.650Z,1012.35
2018-02-20T06:51:24.599Z,1012.39
2018-02-20T06:52:24.557Z,1012.40
2018-02-20T06:53:24.701Z,1012.36
2018-02-20T06:54:24.446Z,1012.35
2018-02-20T06:55:24.696Z,1012.38
2018-02-20T06:56:24.347Z,1012.39
2018-02-20T06:57:24.300Z,1012.38
2018-02-20T06:58:24.247Z,1012.41
2018-02-20T06:59:24.196Z,1012.42
2018-02-20T07:00:24.144Z,1012.40
2018-02-20T07:01:24.393Z,1012.44
2018-02-20T07:02:24.043Z,1012.39
2018-02-20T07:03:23.996Z,1012.45
2018-02-20T07:04:23.991Z,1012.46
2018-02-20T07:05:23.895Z,1012.50
2018-02-20T07:06:23.890Z,1012.51
2018-02-20T07:07:24.092Z,1012.50
2018-02-20T07:08:23.738Z,1012.53
2018-02-20T07:09:23.689Z,1012.55
2018-02-20T07:10:23.788Z,1012.49
2018-02-20T07:11:23.589Z,1012.50
2018-02-20T07:12:23.538Z,1012.52
2018-02-20T07:13:23.795Z,1012.55
2018-02-20T07:14:23.437Z,1012.49
2018-02-20T07:15:23.387Z,1012.54
2018-02-20T07:16:23.337Z,1012.58
2018-02-20T07:17:23.292Z,1012.66
2018-02-20T07:18:23.235Z,1012.66
2018-02-20T07:19:23.485Z,1012.65
2018-02-20T07:20:23.137Z,1012.63
2018-02-20T07:21:23.136Z,1012.66
2018-02-20T07:22:23.036Z,1012.65
2018-02-20T07:23:22.988Z,1012.69
2018-02-20T07:24:22.955Z,1012.63
2018-02-20T07:25:23.186Z,1012.66
2018-02-20T07:26:22.836Z,1012.64
2018-02-20T07:27:22.885Z,1012.66
2018-02-20T07:28:22.736Z,1012.69
2018-02-20T07:29:22.687Z,1012.61
2018-02-20T07:30:22.636Z,1012.58
2018-02-20T07:31:22.587Z,1012.62
2018-02-20T07:32:22.839Z,1012.61
2018-02-20T07:33:22.539Z,1012.60
2018-02-20T07:34:22.438Z,1012.61
2018-02-20T07:35:22.392Z,1012.67
2018-02-20T07:36:22.339Z,1012.68
2018-02-20T07:37:22.291Z,1012.64
2018-02-20T07:38:22.244Z,1012.63
2018-02-20T07:39:22.495Z,1012.67
2018-02-20T07:40:22.152Z,1012.65
2018-02-20T07:41:22.110Z,1012.64
2018-02-20T07:42:22.049Z,1012.65
2018-02-20T07:43:22.002Z,1012.61
2018-02-20T07:44:22.205Z,1012.59
2018-02-20T07:45:21.907Z,1012.65
2018-02-20T07:46:22.170Z,1012.66
2018-02-20T07:47:21.815Z,1012.68
2018-02-20T07:48:21.769Z,1012.69
2018-02-20T07:49:21.736Z,1012.68
2018-02-20T07:50:21.781Z,1012.72
2018-02-20T07:51:21.631Z,1012.69
2018-02-20T07:52:21.783Z,1012.68
2018-02-20T07:53:21.839Z,1012.65
2018-02-20T07:54:21.491Z,1012.73
2018-02-20T07:55:21.452Z,1012.71
2018-02-20T07:56:21.404Z,1012.71
2018-02-20T07:57:21.360Z,1012.75
2018-02-20T07:58:21.415Z,1012.76
2018-02-20T07:59:21.269Z,1012.72
2018-02-20T08:00:21.528Z,1012.77
2018-02-20T08:01:21.191Z,1012.75
2018-02-20T08:02:21.149Z,1012.73
2018-02-20T08:03:21.096Z,1012.73
2018-02-20T08:04:21.108Z,1012.62
2018-02-20T08:05:21.012Z,1012.63
2018-02-20T08:06:20.972Z,1012.65
2018-02-20T08:07:21.225Z,1012.60
2018-02-20T08:08:20.881Z,1012.65
2018-02-20T08:09:20.838Z,1012.62
2018-02-20T08:10:20.798Z,1012.65
2018-02-20T08:11:20.753Z,1012.70
2018-02-20T08:12:20.719Z,1012.71
2018-02-20T08:13:20.968Z,1012.68
2018-02-20T08:14:20.627Z,1012.67
2018-02-20T08:15:20.592Z,1012.70
2018-02-20T08:16:20.548Z,1012.67
2018-02-20T08:17:20.507Z,1012.68
2018-02-20T08:18:20.463Z,1012.67
2018-02-20T08:19:20.769Z,1012.68
2018-02-20T08:20:20.382Z,1012.67
2018-02-20T08:21:20.338Z,1012.66
2018-02-20T08:22:20.299Z,1012.67
2018-02-20T08:23:20.258Z,1012.63
2018-02-20T08:24:20.221Z,1012.66
2018-02-20T08:25:20.476Z,1012.68
2018-02-20T08:26:20.140Z,1012.69
2018-02-20T08:27:20.150Z,1012.68
2018-02-20T08:28:20.207Z,1012.69
2018-02-20T08:29:20.016Z,1012.68
2018-02-20T08:30:20.026Z,1012.72
2018-02-20T08:31:20.240Z,1012.77
2018-02-20T08:32:19.959Z,1012.77
2018-02-20T08:33:19.909Z,1012.77
2018-02-20T08:34:19.818Z,1012.83
2018-02-20T08:35:19.830Z,1012.83
2018-02-20T08:36:19.792Z,1012.83
2018-02-20T08:37:20.249Z,1012.83
2018-02-20T08:38:19.668Z,1012.90
2018-02-20T08:39:19.620Z,1012.92
2018-02-20T08:40:19.638Z,1012.93
2018-02-20T08:41:19.607Z,1012.97
2018-02-20T08:42:19.505Z,1012.93
2018-02-20T08:43:19.785Z,1012.96
2018-02-20T08:44:19.734Z,1013.02
2018-02-20T08:45:19.498Z,1013.01
2018-02-20T08:46:19.661Z,1013.02
2018-02-20T08:47:19.318Z,1013.02
2018-02-20T08:48:19.325Z,1013.01
2018-02-20T08:49:19.239Z,1013.05
2018-02-20T08:50:19.448Z,1013.02
2018-02-20T08:51:19.468Z,1013.06
2018-02-20T08:52:19.225Z,1013.04
2018-02-20T08:53:19.142Z,1013.03
2018-02-20T08:54:19.049Z,1013.05
2018-02-20T08:55:19.015Z,1013.06
2018-02-20T08:56:19.024Z,1013.04
2018-02-20T08:57:18.937Z,1013.05
2018-02-20T08:58:19.202Z,1013.07
2018-02-20T08:59:18.864Z,1013.09
2018-02-20T09:00:18.977Z,1013.01
2018-02-20T09:01:18.838Z,1013.01
2018-02-20T09:02:18.754Z,1012.99
2018-02-20T09:03:18.918Z,1012.97
2018-02-20T09:04:18.677Z,1013.02
2018-02-20T09:05:18.950Z,1012.97
2018-02-20T09:06:18.606Z,1012.99
2018-02-20T09:07:18.568Z,1013.03
2018-02-20T09:08:18.536Z,1013.00
2018-02-20T09:09:18.496Z,1013.00
2018-02-20T09:10:18.459Z,1012.98
2018-02-20T09:11:18.421Z,1013.00
2018-02-20T09:12:18.685Z,1013.03
2018-02-20T09:13:18.403Z,1013.07
2018-02-20T09:14:18.315Z,1013.09
2018-02-20T09:15:18.386Z,1013.06
2018-02-20T09:16:18.342Z,1013.08
2018-02-20T09:17:18.257Z,1013.10
2018-02-20T09:18:18.371Z,1013.12
2018-02-20T09:19:18.436Z,1013.11
2018-02-20T09:20:18.104Z,1013.15
2018-02-20T09:21:18.268Z,1013.13
2018-02-20T09:22:18.030Z,1013.13
2018-02-20T09:23:18.001Z,1013.16
2018-02-20T09:24:17.986Z,1013.15
2018-02-20T09:25:18.276Z,1013.17
2018-02-20T09:26:17.992Z,1013.19
2018-02-20T09:27:17.857Z,1013.18
2018-02-20T09:28:17.872Z,1013.15
2018-02-20T09:29:17.785Z,1013.18
2018-02-20T09:30:17.952Z,1013.16
2018-02-20T09:31:18.011Z,1013.20
2018-02-20T09:32:17.679Z,1013.15
2018-02-20T09:33:17.693Z,1013.19
2018-02-20T09:34:17.618Z,1013.16
2018-02-20T09:35:17.774Z,1013.17
2018-02-20T09:36:17.549Z,1013.14
2018-02-20T09:37:17.804Z,1013.13
2018-02-20T09:38:17.478Z,1013.13
2018-02-20T09:39:17.433Z,1013.16
2018-02-20T09:40:17.397Z,1013.14
2018-02-20T09:41:17.415Z,1013.15
2018-02-20T09:42:17.330Z,1013.19
2018-02-20T09:43:17.595Z,1013.18
2018-02-20T09:44:17.266Z,1013.26
2018-02-20T09:45:17.529Z,1013.24
2018-02-20T09:46:17.198Z,1013.26
2018-02-20T09:47:17.163Z,1013.20
2018-02-20T09:48:17.332Z,1013.21
2018-02-20T09:49:17.400Z,1013.21
2018-02-20T09:50:17.062Z,1013.18
2018-02-20T09:51:17.203Z,1013.18
2018-02-20T09:52:16.991Z,1013.18
2018-02-20T09:53:17.007Z,1013.12
2018-02-20T09:54:16.923Z,1013.10
2018-02-20T09:55:17.196Z,1013.13
2018-02-20T09:56:16.909Z,1013.09
2018-02-20T09:57:16.829Z,1013.09
2018-02-20T09:58:16.843Z,1013.13
2018-02-20T09:59:16.762Z,1013.09
2018-02-20T10:00:16.729Z,1013.10
2018-02-20T10:01:16.749Z,1013.10
2018-02-20T10:02:16.961Z,1013.14
2018-02-20T10:03:16.827Z,1013.11
2018-02-20T10:04:16.594Z,1013.16
2018-02-20T10:05:16.613Z,1013.18
2018-02-20T10:06:16.579Z,1013.18
2018-02-20T10:07:16.497Z,1013.21
2018-02-20T10:08:16.517Z,1013.23
2018-02-20T10:09:16.732Z,1013.19
2018-02-20T10:10:16.448Z,1013.13
2018-02-20T10:11:16.416Z,1013.04
2018-02-20T10:12:16.337Z,1013.08
2018-02-20T10:13:16.358Z,1013.04
2018-02-20T10:14:16.269Z,1013.02
2018-02-20T10:15:16.287Z,1013.01
2018-02-20T10:16:16.561Z,1012.98
2018-02-20T10:17:16.172Z,1012.99
2018-02-20T10:18:16.289Z,1012.98
2018-02-20T10:19:16.112Z,1012.97
2018-02-20T10:20:16.127Z,1013.00
2018-02-20T10:21:16.093Z,1013.00
2018-02-20T10:22:16.009Z,1012.99
2018-02-20T10:23:16.387Z,1013.00
2018-02-20T10:24:15.946Z,1013.01
2018-02-20T10:25:15.962Z,1013.00
2018-02-20T10:26:15.930Z,1013.01
2018-02-20T10:27:15.848Z,1013.06
2018-02-20T10:28:15.866Z,1013.12
2018-02-20T10:29:15.787Z,1013.18
2018-02-20T10:30:16.048Z,1013.23
2018-02-20T10:31:15.873Z,1013.19
2018-02-20T10:32:15.684Z,1013.20
2018-02-20T10:33:15.857Z,1013.22
2018-02-20T10:34:15.676Z,1013.26
2018-02-20T10:35:15.641Z,1013.34
2018-02-20T10:36:15.555Z,1013.31
2018-02-20T10:37:15.830Z,1013.14
2018-02-20T10:38:15.546Z,1013.05
2018-02-20T10:39:15.611Z,1013.06
2018-02-20T10:40:15.426Z,1013.00
2018-02-20T10:41:15.395Z,1013.03
2018-02-20T10:42:15.360Z,1013.02
2018-02-20T10:43:15.629Z,1013.05
2018-02-20T10:44:15.348Z,1013.05
2018-02-20T10:45:15.267Z,1013.05
2018-02-20T10:46:15.394Z,1013.04
2018-02-20T10:47:15.201Z,1013.04
2018-02-20T10:48:15.220Z,1012.98
2018-02-20T10:49:15.490Z,1012.97
2018-02-20T10:50:15.267Z,1012.98
2018-02-20T10:51:15.177Z,1013.02
2018-02-20T10:52:15.054Z,1012.97
2018-02-20T10:53:15.058Z,1013.00
2018-02-20T10:54:14.977Z,1012.96
2018-02-20T10:55:15.242Z,1012.97
2018-02-20T10:56:14.913Z,1013.00
2018-02-20T10:57:14.880Z,1013.02
2018-02-20T10:58:14.947Z,1013.02
2018-02-20T10:59:14.984Z,1013.01
2018-02-20T11:00:14.786Z,1012.98
2018-02-20T11:01:15.057Z,1012.99
2018-02-20T11:02:14.724Z,1013.01
2018-02-20T11:03:15.746Z,1013.02
2018-02-20T11:04:14.761Z,1013.01
2018-02-20T11:05:14.632Z,1013.01
2018-02-20T11:06:14.899Z,1013.03
2018-02-20T11:07:14.944Z,1013.04
2018-02-20T11:08:14.595Z,1013.03
2018-02-20T11:09:14.582Z,1012.99
2018-02-20T11:10:14.475Z,1013.02
2018-02-20T11:11:14.500Z,1013.01
2018-02-20T11:12:14.417Z,1013.06
2018-02-20T11:13:14.710Z,1013.02
2018-02-20T11:14:14.402Z,1013.06
2018-02-20T11:15:14.322Z,1013.05
2018-02-20T11:16:14.345Z,1013.07
2018-02-20T11:17:14.262Z,1013.08
2018-02-20T11:18:14.285Z,1013.04
2018-02-20T11:19:14.500Z,1013.03
2018-02-20T11:20:14.468Z,1013.05
2018-02-20T11:21:14.200Z,1013.08
2018-02-20T11:22:14.111Z,1013.07
2018-02-20T11:23:14.137Z,1013.02
2018-02-20T11:24:14.193Z,1013.05
2018-02-20T11:25:14.013Z,1013.09
2018-02-20T11:26:14.031Z,1013.00
2018-02-20T11:27:14.259Z,1013.03
2018-02-20T11:28:14.117Z,1013.02
2018-02-20T11:29:13.943Z,1013.04
2018-02-20T11:30:13.869Z,1013.05
2018-02-20T11:31:13.876Z,1013.02
2018-02-20T11:32:13.799Z,1013.01
2018-02-20T11:33:13.962Z,1012.98
2018-02-20T11:34:14.039Z,1013.01
2018-02-20T11:35:13.751Z,1013.02
2018-02-20T11:36:13.761Z,1012.94
2018-02-20T11:37:13.640Z,1013.01
2018-02-20T11:38:13.809Z,1013.00
2018-02-20T11:39:13.725Z,1013.01
2018-02-20T11:40:13.549Z,1012.98
2018-02-20T11:41:13.810Z,1013.01
2018-02-20T11:42:13.478Z,1013.05
2018-02-20T11:43:13.513Z,1013.05
2018-02-20T11:44:13.617Z,1013.06
2018-02-20T11:45:13.388Z,1013.07
2018-02-20T11:46:13.411Z,1013.04
2018-02-20T11:47:13.322Z,1013.03
2018-02-20T11:48:13.596Z,1013.05
2018-02-20T11:49:13.306Z,1013.06
2018-02-20T11:50:13.235Z,1013.04
2018-02-20T11:51:13.245Z,1013.05
2018-02-20T11:52:13.161Z,1013.07
2018-02-20T11:53:13.356Z,1013.09
2018-02-20T11:54:13.159Z,1013.07
2018-02-20T11:55:13.381Z,1013.08
2018-02-20T11:56:13.093Z,1013.09
2018-02-20T11:57:13.004Z,1013.10
2018-02-20T11:58:13.079Z,1013.11
2018-02-20T11:59:12.993Z,1013.08
2018-02-20T12:00:12.913Z,1013.07
2018-02-20T12:01:13.186Z,1013.12
2018-02-20T12:02:12.851Z,1013.08
2018-02-20T12:03:13.021Z,1013.13
2018-02-20T12:04:12.845Z,1013.08
2018-02-20T12:05:12.752Z,1013.06
2018-02-20T12:06:12.820Z,1013.02
2018-02-20T12:07:12.991Z,1013.05